createdAt,value
2022-08-05T00:01:35.758Z,21.57
2022-08-05T00:04:08.392Z,21.53
2022-08-05T00:06:36.511Z,21.50
2022-08-05T00:09:12.880Z,21.46
2022-08-05T00:11:49.010Z,21.42
2022-08-05T00:14:26.490Z,21.32
2022-08-05T00:16:57.728Z,21.28
2022-08-05T00:19:33.087Z,21.26
2022-08-05T00:22:02.976Z,21.20
2022-08-05T00:24:32.434Z,21.15
2022-08-05T00:27:04.515Z,21.09
2022-08-05T00:29:38.469Z,21.03
2022-08-05T00:32:13.364Z,20.97
2022-08-05T00:35:04.623Z,20.94
2022-08-05T00:37:35.881Z,20.91
2022-08-05T00:40:27.299Z,20.86
2022-08-05T00:42:59.175Z,20.82
2022-08-05T00:45:37.847Z,20.80
2022-08-05T00:48:16.961Z,20.77
2022-08-05T00:50:46.756Z,20.70
2022-08-05T00:54:00.195Z,20.66
2022-08-05T00:56:05.732Z,20.62
2022-08-05T00:58:37.332Z,20.63
2022-08-05T01:01:09.089Z,20.63
2022-08-05T01:03:38.971Z,20.66
2022-08-05T01:06:11.314Z,20.64
2022-08-05T01:08:44.639Z,20.60
2022-08-05T01:11:22.590Z,20.59
2022-08-05T01:14:15.549Z,20.59
2022-08-05T01:17:02.685Z,20.54
2022-08-05T01:20:02.479Z,20.54
2022-08-05T01:22:29.378Z,20.57
2022-08-05T01:25:18.186Z,20.55
2022-08-05T01:28:11.115Z,20.47
2022-08-05T01:30:53.558Z,20.45
2022-08-05T01:33:26.647Z,20.43
2022-08-05T01:35:57.397Z,20.45
2022-08-05T01:38:29.910Z,20.41
2022-08-05T01:40:59.841Z,20.41
2022-08-05T01:43:31.949Z,20.42
2022-08-05T01:46:07.151Z,20.41
2022-08-05T01:48:49.476Z,20.41
2022-08-05T01:51:19.408Z,20.40
2022-08-05T01:53:57.663Z,20.39
2022-08-05T01:58:10.636Z,20.31
2022-08-05T01:59:23.414Z,20.23
2022-08-05T02:01:55.521Z,20.21
2022-08-05T02:04:26.753Z,20.19
2022-08-05T02:06:55.950Z,20.16
2022-08-05T02:09:23.929Z,20.08
2022-08-05T02:12:12.581Z,20.06
2022-08-05T02:14:47.154Z,20.02
2022-08-05T02:18:30.572Z,19.98
2022-08-05T02:20:23.475Z,19.93
2022-08-05T02:22:58.651Z,19.91
2022-08-05T02:25:50.174Z,19.95
2022-08-05T02:28:29.017Z,19.94
2022-08-05T02:31:07.718Z,19.90
2022-08-05T02:34:01.242Z,19.89
2022-08-05T02:36:32.619Z,19.95
2022-08-05T02:39:03.447Z,19.94
2022-08-05T02:41:43.002Z,19.94
2022-08-05T02:44:25.846Z,19.95
2022-08-05T02:47:00.308Z,19.96
2022-08-05T02:49:37.006Z,19.99
2022-08-05T02:52:25.864Z,19.97
2022-08-05T02:55:01.891Z,19.98
2022-08-05T02:58:11.486Z,19.94
2022-08-05T03:00:25.353Z,19.90
2022-08-05T03:02:54.913Z,19.93
2022-08-05T03:06:52.493Z,19.84
2022-08-05T03:08:12.821Z,19.75
2022-08-05T03:11:55.638Z,19.71
2022-08-05T03:13:51.081Z,19.74
2022-08-05T03:16:21.707Z,19.78
2022-08-05T03:18:51.516Z,19.78
2022-08-05T03:21:20.058Z,19.76
2022-08-05T03:23:50.415Z,19.78
2022-08-05T03:26:31.378Z,19.77
2022-08-05T03:29:00.630Z,19.70
2022-08-05T03:31:57.386Z,19.64
2022-08-05T03:34:19.206Z,19.62
2022-08-05T03:36:52.542Z,19.64
2022-08-05T03:39:27.165Z,19.67
2022-08-05T03:41:56.850Z,19.72
2022-08-05T03:44:25.979Z,19.76
2022-08-05T03:46:57.208Z,19.76
2022-08-05T03:49:31.176Z,19.74
2022-08-05T03:52:38.008Z,19.75
2022-08-05T03:56:04.277Z,19.79
2022-08-05T03:58:05.495Z,19.80
2022-08-05T04:00:33.570Z,19.77
2022-08-05T04:03:04.340Z,19.74
2022-08-05T04:05:38.617Z,19.75
2022-08-05T04:08:14.667Z,19.78
2022-08-05T04:10:59.462Z,19.82
2022-08-05T04:13:50.071Z,19.88
2022-08-05T04:16:16.849Z,19.96
2022-08-05T04:18:54.946Z,19.99
2022-08-05T04:22:10.359Z,20.02
2022-08-05T04:24:19.481Z,20.08
2022-08-05T04:26:51.062Z,20.09
2022-08-05T04:29:19.804Z,20.10
2022-08-05T04:31:48.331Z,20.14
2022-08-05T04:34:33.979Z,20.15
2022-08-05T04:37:04.086Z,20.17
2022-08-05T04:39:35.374Z,20.20
2022-08-05T04:42:03.954Z,20.25
2022-08-05T04:44:31.938Z,20.30
2022-08-05T04:46:59.915Z,20.37
2022-08-05T04:50:02.701Z,20.41
2022-08-05T04:52:27.619Z,20.49
2022-08-05T04:54:57.391Z,20.58
2022-08-05T04:57:29.308Z,20.66
2022-08-05T04:59:58.466Z,20.73
2022-08-05T05:02:41.182Z,20.77
2022-08-05T05:05:17.022Z,20.82
2022-08-05T05:08:14.311Z,20.90
2022-08-05T05:10:58.217Z,20.96
2022-08-05T05:13:32.347Z,21.05
2022-08-05T05:16:11.175Z,21.14
2022-08-05T05:18:39.655Z,21.19
2022-08-05T05:21:07.566Z,21.27
2022-08-05T05:23:50.361Z,21.30
2022-08-05T05:26:28.716Z,21.33
2022-08-05T05:29:02.353Z,21.42
2022-08-05T05:34:02.015Z,21.65
2022-08-05T05:36:31.971Z,21.75
2022-08-05T05:39:00.338Z,21.85
2022-08-05T05:41:40.802Z,21.93
2022-08-05T05:44:35.513Z,22.01
2022-08-05T05:46:58.614Z,22.10
2022-08-05T05:49:33.024Z,22.18
2022-08-05T05:52:06.064Z,22.26
2022-08-05T05:54:51.097Z,22.36
2022-08-05T05:57:20.305Z,22.44
2022-08-05T05:59:48.759Z,22.49
2022-08-05T06:02:17.350Z,22.55
2022-08-05T06:05:01.348Z,22.63
2022-08-05T06:07:41.983Z,22.74
2022-08-05T06:10:11.681Z,22.82
2022-08-05T06:12:42.067Z,22.88
2022-08-05T06:15:16.494Z,22.96
2022-08-05T06:17:54.388Z,23.06
2022-08-05T06:20:23.225Z,23.16
2022-08-05T06:22:51.139Z,23.25
2022-08-05T06:25:24.395Z,23.36
2022-08-05T06:28:10.871Z,23.45
2022-08-05T06:30:48.482Z,23.50
2022-08-05T06:33:19.277Z,23.55
2022-08-05T06:36:04.215Z,23.64
2022-08-05T06:38:36.982Z,23.75
2022-08-05T06:41:07.764Z,23.86
2022-08-05T06:43:57.926Z,23.95
2022-08-05T06:46:30.430Z,24.09
2022-08-05T06:49:01.212Z,24.19
2022-08-05T06:51:31.010Z,24.32
2022-08-05T06:54:01.900Z,24.44
2022-08-05T06:56:33.876Z,24.56
2022-08-05T06:59:09.540Z,24.67
2022-08-05T07:01:41.485Z,24.81
2022-08-05T07:04:10.414Z,24.92
2022-08-05T07:06:38.391Z,24.97
2022-08-05T07:09:06.406Z,25.05
2022-08-05T07:11:37.329Z,25.12
2022-08-05T07:14:28.918Z,25.17
2022-08-05T07:18:08.590Z,25.27
2022-08-05T07:20:31.421Z,25.35
2022-08-05T07:22:39.258Z,25.44
2022-08-05T07:25:22.064Z,25.53
2022-08-05T07:27:57.585Z,25.63
2022-08-05T07:30:38.857Z,25.74
2022-08-05T07:33:16.063Z,25.88
2022-08-05T07:36:04.201Z,25.96
2022-08-05T07:38:43.131Z,26.01
2022-08-05T07:42:14.318Z,26.08
2022-08-05T07:44:14.382Z,26.16
2022-08-05T07:46:49.679Z,26.22
2022-08-05T07:49:19.888Z,26.30
2022-08-05T07:51:52.994Z,26.39
2022-08-05T07:54:31.065Z,26.47
2022-08-05T07:57:18.193Z,26.55
2022-08-05T07:59:51.101Z,26.61
2022-08-05T08:02:26.867Z,26.68
2022-08-05T08:04:59.818Z,26.77
2022-08-05T08:07:29.010Z,26.87
2022-08-05T08:10:08.083Z,26.94
2022-08-05T08:12:49.517Z,27.00
2022-08-05T08:15:18.355Z,27.08
2022-08-05T08:18:13.770Z,27.15
2022-08-05T08:21:02.963Z,27.20
2022-08-05T08:24:02.399Z,27.28
2022-08-05T08:26:27.017Z,27.40
2022-08-05T08:29:21.597Z,27.48
2022-08-05T08:31:48.708Z,27.62
2022-08-05T08:34:30.333Z,27.75
2022-08-05T08:37:03.360Z,27.90
2022-08-05T08:39:37.543Z,28.05
2022-08-05T08:42:32.346Z,28.12
2022-08-05T08:45:21.244Z,28.20
2022-08-05T08:48:12.774Z,28.31
2022-08-05T08:51:22.572Z,28.46
2022-08-05T08:53:36.308Z,28.67
2022-08-05T08:56:06.336Z,28.78
2022-08-05T08:58:44.037Z,28.92
2022-08-05T09:01:18.257Z,29.09
2022-08-05T09:03:52.841Z,29.23
2022-08-05T09:06:29.635Z,29.36
2022-08-05T09:09:01.033Z,29.46
2022-08-05T09:11:52.669Z,29.49
2022-08-05T09:14:56.938Z,29.71
2022-08-05T09:17:59.217Z,29.82
2022-08-05T09:20:37.814Z,29.91
2022-08-05T09:23:18.553Z,30.21
2022-08-05T09:26:01.628Z,30.35
2022-08-05T09:28:34.741Z,30.42
2022-08-05T09:31:22.831Z,30.82
2022-08-05T09:34:06.980Z,32.19
2022-08-05T09:36:56.317Z,33.28
2022-08-05T09:39:45.048Z,34.38
2022-08-05T09:42:23.898Z,35.54
2022-08-05T09:45:03.359Z,36.34
2022-08-05T09:47:55.070Z,37.14
2022-08-05T09:50:37.594Z,37.46
2022-08-05T09:53:22.987Z,37.91
2022-08-05T09:56:04.699Z,38.56
2022-08-05T09:58:41.819Z,39.28
2022-08-05T10:01:14.926Z,39.71
2022-08-05T10:04:10.322Z,40.10
2022-08-05T10:06:41.052Z,40.13
2022-08-05T10:09:25.063Z,40.66
2022-08-05T10:12:29.966Z,40.94
2022-08-05T10:15:20.458Z,41.21
2022-08-05T10:18:23.066Z,41.50
2022-08-05T10:21:06.902Z,41.48
2022-08-05T10:24:00.113Z,41.89
2022-08-05T10:26:32.713Z,41.81
2022-08-05T10:29:02.777Z,41.63
2022-08-05T10:32:53.843Z,41.94
2022-08-05T10:34:25.867Z,42.63
2022-08-05T10:36:58.441Z,42.39
2022-08-05T10:40:03.025Z,42.36
2022-08-05T10:42:34.013Z,42.33
2022-08-05T10:45:20.932Z,42.62
2022-08-05T10:48:29.670Z,42.60
2022-08-05T10:51:21.649Z,42.83
2022-08-05T10:53:50.558Z,42.75
2022-08-05T10:56:26.061Z,42.61
2022-08-05T10:58:54.649Z,42.82
2022-08-05T11:01:55.337Z,42.76
2022-08-05T11:04:28.157Z,41.72
2022-08-05T11:07:01.571Z,40.09
2022-08-05T11:09:46.273Z,38.98
2022-08-05T11:12:54.208Z,37.91
2022-08-05T11:16:01.118Z,36.96
2022-08-05T11:18:26.701Z,36.32
2022-08-05T11:20:55.232Z,35.83
2022-08-05T11:24:04.857Z,35.47
2022-08-05T11:26:28.151Z,35.03
2022-08-05T11:29:13.862Z,34.56
2022-08-05T11:31:57.234Z,33.98
2022-08-05T11:34:51.995Z,33.71
2022-08-05T11:38:28.065Z,33.43
2022-08-05T11:41:13.976Z,33.11
2022-08-05T11:44:05.002Z,32.90
2022-08-05T11:46:58.076Z,32.74
2022-08-05T11:49:34.126Z,32.58
2022-08-05T11:52:11.281Z,32.47
2022-08-05T11:54:41.299Z,32.32
2022-08-05T11:57:39.360Z,32.14
2022-08-05T11:59:58.574Z,32.04
2022-08-05T12:02:33.697Z,31.98
2022-08-05T12:05:08.078Z,31.94
2022-08-05T12:08:10.270Z,31.95
2022-08-05T12:10:45.023Z,31.96
2022-08-05T12:13:18.468Z,31.93
2022-08-05T12:15:58.130Z,31.97
2022-08-05T12:18:33.164Z,31.97
2022-08-05T12:21:19.155Z,31.83
2022-08-05T12:24:04.771Z,31.73
2022-08-05T12:26:36.195Z,31.60
2022-08-05T12:29:15.943Z,31.61
2022-08-05T12:31:53.538Z,31.60
2022-08-05T12:34:26.817Z,31.53
2022-08-05T12:37:00.777Z,31.44
2022-08-05T12:39:37.210Z,31.39
2022-08-05T12:42:14.381Z,31.32
2022-08-05T12:44:44.959Z,31.22
2022-08-05T12:47:17.073Z,31.17
2022-08-05T12:50:04.494Z,31.07
2022-08-05T12:52:42.073Z,31.03
2022-08-05T12:55:25.806Z,31.00
2022-08-05T12:58:52.495Z,31.03
2022-08-05T13:02:00.628Z,31.07
2022-08-05T13:03:41.575Z,31.15
2022-08-05T13:06:16.513Z,31.12
2022-08-05T13:08:51.942Z,31.07
2022-08-05T13:12:02.573Z,31.06
2022-08-05T13:14:20.237Z,31.07
2022-08-05T13:16:57.958Z,31.05
2022-08-05T13:19:47.287Z,31.08
2022-08-05T13:22:28.325Z,31.09
2022-08-05T13:25:00.449Z,31.11
2022-08-05T13:27:41.187Z,31.13
2022-08-05T13:30:34.810Z,31.14
2022-08-05T13:33:01.416Z,31.16
2022-08-05T13:35:42.877Z,31.18
2022-08-05T13:38:28.002Z,31.16
2022-08-05T13:41:03.908Z,31.12
2022-08-05T13:43:45.377Z,31.14
2022-08-05T13:46:37.773Z,31.14
2022-08-05T13:49:10.182Z,31.17
2022-08-05T13:51:46.701Z,31.16
2022-08-05T13:54:20.972Z,31.25
2022-08-05T13:56:55.278Z,31.28
2022-08-05T13:59:26.810Z,31.31
2022-08-05T14:01:58.663Z,31.35
2022-08-05T14:04:50.138Z,31.33
2022-08-05T14:07:25.623Z,31.33
2022-08-05T14:10:30.815Z,31.25
2022-08-05T14:12:59.897Z,31.30
2022-08-05T14:16:07.975Z,31.38
2022-08-05T14:18:17.573Z,31.43
2022-08-05T14:20:54.479Z,31.42
2022-08-05T14:23:25.901Z,31.39
2022-08-05T14:25:58.094Z,31.40
2022-08-05T14:28:29.554Z,31.41
2022-08-05T14:30:58.962Z,31.43
2022-08-05T14:33:26.843Z,31.49
2022-08-05T14:35:54.939Z,31.50
2022-08-05T14:38:32.290Z,31.50
2022-08-05T14:41:06.105Z,31.53
2022-08-05T14:43:57.673Z,31.55
2022-08-05T14:46:29.600Z,31.61
2022-08-05T14:49:06.794Z,31.59
2022-08-05T14:51:38.217Z,31.54
2022-08-05T14:54:28.425Z,31.53
2022-08-05T14:56:58.249Z,31.54
2022-08-05T14:59:29.551Z,31.56
2022-08-05T15:02:14.687Z,31.59
2022-08-05T15:04:43.899Z,31.54
2022-08-05T15:08:04.585Z,31.45
2022-08-05T15:10:03.181Z,31.47
2022-08-05T15:12:51.638Z,31.53
2022-08-05T15:15:54.365Z,31.58
2022-08-05T15:18:08.816Z,31.56
2022-08-05T15:20:36.714Z,31.52
2022-08-05T15:23:11.096Z,31.52
2022-08-05T15:25:52.215Z,31.44
2022-08-05T15:28:27.097Z,31.43
2022-08-05T15:30:56.307Z,31.39
2022-08-05T15:34:18.635Z,31.43
2022-08-05T15:36:17.838Z,31.46
2022-08-05T15:41:00.100Z,31.49
2022-08-05T15:41:55.721Z,31.44
2022-08-05T15:44:29.979Z,31.45
2022-08-05T15:46:59.353Z,31.48
2022-08-05T15:49:47.978Z,31.46
2022-08-05T15:52:16.794Z,31.42
2022-08-05T15:54:57.553Z,31.37
2022-08-05T15:57:34.683Z,31.36
2022-08-05T16:00:05.460Z,31.37
2022-08-05T16:02:33.735Z,31.34
2022-08-05T16:05:02.425Z,31.39
2022-08-05T16:07:33.362Z,31.39
2022-08-05T16:10:01.270Z,31.38
2022-08-05T16:12:30.560Z,31.35
2022-08-05T16:14:59.531Z,31.34
2022-08-05T16:17:29.121Z,31.31
2022-08-05T16:20:04.584Z,31.29
2022-08-05T16:22:35.788Z,31.28
2022-08-05T16:25:09.854Z,31.25
2022-08-05T16:28:00.387Z,31.23
2022-08-05T16:30:28.748Z,31.15
2022-08-05T16:32:59.087Z,31.11
2022-08-05T16:35:32.419Z,31.09
2022-08-05T16:38:24.489Z,31.09
2022-08-05T16:40:55.280Z,31.06
2022-08-05T16:43:30.985Z,31.01
2022-08-05T16:46:03.519Z,30.97
2022-08-05T16:48:38.801Z,30.91
2022-08-05T16:51:09.128Z,30.90
2022-08-05T16:54:03.948Z,30.88
2022-08-05T16:56:33.931Z,30.82
2022-08-05T16:59:07.517Z,30.78
2022-08-05T17:01:54.043Z,30.76
2022-08-05T17:04:27.307Z,30.75
2022-08-05T17:07:01.425Z,30.71
2022-08-05T17:09:30.036Z,30.67
2022-08-05T17:11:59.203Z,30.61
2022-08-05T17:14:37.447Z,30.51
2022-08-05T17:17:14.221Z,30.44
2022-08-05T17:19:45.723Z,30.38
2022-08-05T17:22:25.034Z,30.34
2022-08-05T17:24:58.045Z,30.31
2022-08-05T17:27:33.730Z,30.28
2022-08-05T17:30:07.091Z,30.21
2022-08-05T17:32:42.087Z,30.13
2022-08-05T17:35:12.149Z,30.08
2022-08-05T17:37:45.355Z,30.02
2022-08-05T17:40:17.727Z,29.98
2022-08-05T17:42:51.078Z,29.89
2022-08-05T17:45:22.589Z,29.83
2022-08-05T17:47:54.853Z,29.73
2022-08-05T17:50:30.371Z,29.67
2022-08-05T17:53:01.195Z,29.60
2022-08-05T17:55:38.280Z,29.51
2022-08-05T17:58:11.196Z,29.41
2022-08-05T18:00:47.420Z,29.31
2022-08-05T18:03:48.337Z,29.20
2022-08-05T18:06:11.206Z,29.04
2022-08-05T18:08:44.437Z,28.88
2022-08-05T18:11:24.165Z,28.79
2022-08-05T18:14:07.118Z,28.69
2022-08-05T18:16:51.080Z,28.58
2022-08-05T18:19:22.917Z,28.46
2022-08-05T18:22:08.369Z,28.38
2022-08-05T18:24:39.547Z,28.29
2022-08-05T18:27:12.896Z,28.22
2022-08-05T18:29:54.014Z,28.15
2022-08-05T18:32:27.693Z,28.07
2022-08-05T18:34:56.301Z,27.98
2022-08-05T18:37:33.519Z,27.88
2022-08-05T18:40:33.714Z,27.77
2022-08-05T18:42:52.180Z,27.65
2022-08-05T18:45:20.285Z,27.52
2022-08-05T18:47:53.172Z,27.41
2022-08-05T18:50:46.266Z,27.31
2022-08-05T18:53:20.545Z,27.21
2022-08-05T18:55:52.527Z,27.13
2022-08-05T18:58:27.130Z,27.10
2022-08-05T19:00:57.325Z,27.05
2022-08-05T19:03:55.685Z,26.98
2022-08-05T19:06:21.517Z,26.88
2022-08-05T19:08:50.405Z,26.80
2022-08-05T19:11:21.914Z,26.75
2022-08-05T19:14:00.635Z,26.67
2022-08-05T19:16:36.882Z,26.63
2022-08-05T19:19:14.939Z,26.54
2022-08-05T19:21:51.451Z,26.48
2022-08-05T19:24:34.497Z,26.46
2022-08-05T19:27:04.422Z,26.45
2022-08-05T19:29:36.153Z,26.45
2022-08-05T19:32:11.477Z,26.43
2022-08-05T19:34:40.571Z,26.41
2022-08-05T19:37:10.641Z,26.39
2022-08-05T19:39:45.705Z,26.38
2022-08-05T19:42:35.603Z,26.34
2022-08-05T19:45:06.546Z,26.27
2022-08-05T19:47:37.146Z,26.18
2022-08-05T19:50:07.683Z,26.11
2022-08-05T19:52:38.815Z,26.05
2022-08-05T19:55:08.950Z,25.99
2022-08-05T19:58:07.019Z,25.95
2022-08-05T20:00:43.170Z,25.91
2022-08-05T20:03:11.542Z,25.90
2022-08-05T20:05:49.977Z,25.91
2022-08-05T20:08:19.196Z,25.87
2022-08-05T20:10:49.660Z,25.81
2022-08-05T20:13:25.846Z,25.71
2022-08-05T20:15:58.394Z,25.63
2022-08-05T20:18:33.206Z,25.55
2022-08-05T20:21:05.171Z,25.52
2022-08-05T20:23:40.766Z,25.49
2022-08-05T20:26:20.718Z,25.48
2022-08-05T20:28:51.154Z,25.46
2022-08-05T20:31:28.395Z,25.39
2022-08-05T20:34:05.975Z,25.35
2022-08-05T20:36:36.447Z,25.38
2022-08-05T20:39:07.273Z,25.41
2022-08-05T20:41:43.724Z,25.37
2022-08-05T20:44:29.691Z,25.35
2022-08-05T20:47:00.736Z,25.37
2022-08-05T20:49:28.602Z,25.38
2022-08-05T20:51:57.851Z,25.42
2022-08-05T20:54:42.891Z,25.44
2022-08-05T20:57:42.383Z,25.43
2022-08-05T21:00:21.263Z,25.38
2022-08-05T21:03:01.206Z,25.34
2022-08-05T21:05:38.309Z,25.32
2022-08-05T21:08:17.271Z,25.27
2022-08-05T21:10:48.513Z,25.25
2022-08-05T21:13:26.022Z,25.25
2022-08-05T21:15:55.308Z,25.23
2022-08-05T21:18:23.517Z,25.21
2022-08-05T21:20:55.424Z,25.18
2022-08-05T21:23:23.321Z,25.15
2022-08-05T21:25:52.013Z,25.14
2022-08-05T21:28:23.875Z,25.11
2022-08-05T21:30:58.825Z,25.06
2022-08-05T21:33:26.749Z,25.05
2022-08-05T21:36:08.066Z,25.04
2022-08-05T21:38:40.422Z,25.02
2022-08-05T21:41:09.033Z,25.00
2022-08-05T21:43:41.834Z,24.97
2022-08-05T21:46:12.675Z,24.96
2022-08-05T21:48:40.867Z,24.94
2022-08-05T21:52:16.386Z,24.93
2022-08-05T21:54:03.910Z,24.91
2022-08-05T21:56:31.992Z,24.89
2022-08-05T21:59:01.198Z,24.85
2022-08-05T22:01:35.912Z,24.84
2022-08-05T22:04:04.111Z,24.81
2022-08-05T22:06:39.685Z,24.75
2022-08-05T22:09:14.045Z,24.73
2022-08-05T22:11:46.945Z,24.71
2022-08-05T22:14:34.438Z,24.70
2022-08-05T22:17:06.588Z,24.67
2022-08-05T22:20:00.793Z,24.66
2022-08-05T22:22:28.106Z,24.60
2022-08-05T22:25:21.001Z,24.57
2022-08-05T22:28:04.892Z,24.57
2022-08-05T22:30:53.545Z,24.59
2022-08-05T22:33:57.323Z,24.62
2022-08-05T22:36:14.507Z,24.54
2022-08-05T22:38:48.297Z,24.49
2022-08-05T22:42:04.552Z,24.44
2022-08-05T22:44:08.737Z,24.39
2022-08-05T22:46:39.559Z,24.32
2022-08-05T22:49:23.070Z,24.26
2022-08-05T22:52:05.805Z,24.21
2022-08-05T22:54:36.794Z,24.18
2022-08-05T22:57:08.657Z,24.15
2022-08-05T22:59:46.294Z,24.12
2022-08-05T23:02:17.938Z,24.05
2022-08-05T23:04:51.558Z,24.01
2022-08-05T23:07:22.300Z,23.98
2022-08-05T23:09:57.531Z,23.93
2022-08-05T23:12:32.711Z,23.87
2022-08-05T23:15:03.615Z,23.84
2022-08-05T23:17:34.493Z,23.82
2022-08-05T23:20:16.635Z,23.82
2022-08-05T23:22:48.543Z,23.85
2022-08-05T23:25:51.503Z,23.83
2022-08-05T23:28:08.484Z,23.82
2022-08-05T23:30:40.226Z,23.81
2022-08-05T23:33:16.377Z,23.82
2022-08-05T23:35:50.843Z,23.83
2022-08-05T23:38:18.681Z,23.82
2022-08-05T23:40:50.047Z,23.81
2022-08-05T23:43:25.066Z,23.80
2022-08-05T23:46:19.741Z,23.77
2022-08-05T23:48:59.590Z,23.73
2022-08-05T23:51:54.926Z,23.67
2022-08-05T23:54:26.479Z,23.61
2022-08-05T23:57:03.277Z,23.57
